sensor_id;sensor_type;location;lat;lon;timestamp;pressure;altitude;pressure_sealevel;temperature;humidity
39223;BME280;24936;46.328;11.026;2023-04-09T00:01:05;94521.09;;;4.48;79.65
39223;BME280;24936;46.328;11.026;2023-04-09T00:03:31;94527.56;;;4.42;79.56
39223;BME280;24936;46.328;11.026;2023-04-09T00:05:56;94525.19;;;4.11;81.12
39223;BME280;24936;46.328;11.026;2023-04-09T00:08:22;94531.81;;;4.03;81.67
39223;BME280;24936;46.328;11.026;2023-04-09T00:10:53;94533.59;;;4.02;81.33
39223;BME280;24936;46.328;11.026;2023-04-09T00:13:19;94523.81;;;4.06;81.22
39223;BME280;24936;46.328;11.026;2023-04-09T00:15:45;94520.28;;;4.07;80.98
39223;BME280;24936;46.328;11.026;2023-04-09T00:18:12;94527.53;;;4.02;80.90
39223;BME280;24936;46.328;11.026;2023-04-09T00:20:37;94522.56;;;3.84;81.71
39223;BME280;24936;46.328;11.026;2023-04-09T00:23:03;94518.06;;;3.73;82.24
39223;BME280;24936;46.328;11.026;2023-04-09T00:25:28;94525.09;;;3.86;81.49
39223;BME280;24936;46.328;11.026;2023-04-09T00:27:54;94526.91;;;3.98;80.65
39223;BME280;24936;46.328;11.026;2023-04-09T00:30:20;94525.13;;;3.98;80.40
39223;BME280;24936;46.328;11.026;2023-04-09T00:32:45;94530.81;;;3.91;80.53
39223;BME280;24936;46.328;11.026;2023-04-09T00:35:11;94528.34;;;3.89;80.60
39223;BME280;24936;46.328;11.026;2023-04-09T00:37:36;94533.66;;;3.88;80.75
39223;BME280;24936;46.328;11.026;2023-04-09T00:40:02;94528.22;;;3.91;80.48
39223;BME280;24936;46.328;11.026;2023-04-09T00:42:35;94530.34;;;3.98;80.07
39223;BME280;24936;46.328;11.026;2023-04-09T00:45:01;94527.25;;;4.06;79.57
39223;BME280;24936;46.328;11.026;2023-04-09T00:47:28;94530.03;;;4.18;79.23
39223;BME280;24936;46.328;11.026;2023-04-09T00:49:55;94532.50;;;4.19;79.45
39223;BME280;24936;46.328;11.026;2023-04-09T00:52:21;94528.13;;;4.20;79.09
39223;BME280;24936;46.328;11.026;2023-04-09T00:54:48;94524.44;;;4.09;79.45
39223;BME280;24936;46.328;11.026;2023-04-09T00:57:14;94528.41;;;4.02;79.91
39223;BME280;24936;46.328;11.026;2023-04-09T00:59:40;94528.16;;;3.92;80.72
39223;BME280;24936;46.328;11.026;2023-04-09T01:02:06;94528.63;;;3.85;80.90
39223;BME280;24936;46.328;11.026;2023-04-09T01:04:31;94527.06;;;3.82;81.01
39223;BME280;24936;46.328;11.026;2023-04-09T01:07:12;94530.00;;;3.90;80.32
39223;BME280;24936;46.328;11.026;2023-04-09T01:10:19;94529.06;;;3.91;80.75
39223;BME280;24936;46.328;11.026;2023-04-09T01:13:04;94530.13;;;3.89;80.58
39223;BME280;24936;46.328;11.026;2023-04-09T01:15:35;94534.78;;;3.83;80.80
39223;BME280;24936;46.328;11.026;2023-04-09T01:18:10;94540.28;;;3.79;80.96
39223;BME280;24936;46.328;11.026;2023-04-09T01:20:41;94532.50;;;3.64;81.53
39223;BME280;24936;46.328;11.026;2023-04-09T01:23:24;94531.28;;;3.56;81.95
39223;BME280;24936;46.328;11.026;2023-04-09T01:25:59;94538.47;;;3.52;81.97
39223;BME280;24936;46.328;11.026;2023-04-09T01:28:31;94540.19;;;3.66;80.98
39223;BME280;24936;46.328;11.026;2023-04-09T01:31:08;94533.94;;;3.83;80.59
39223;BME280;24936;46.328;11.026;2023-04-09T01:33:37;94533.19;;;3.81;80.20
39223;BME280;24936;46.328;11.026;2023-04-09T01:36:05;94531.13;;;3.59;81.20
39223;BME280;24936;46.328;11.026;2023-04-09T01:38:32;94536.16;;;3.47;81.37
39223;BME280;24936;46.328;11.026;2023-04-09T01:41:00;94526.75;;;3.45;81.20
39223;BME280;24936;46.328;11.026;2023-04-09T01:43:26;94526.94;;;3.42;81.03
39223;BME280;24936;46.328;11.026;2023-04-09T01:45:52;94528.44;;;3.46;81.08
39223;BME280;24936;46.328;11.026;2023-04-09T01:48:19;94531.50;;;3.38;81.61
39223;BME280;24936;46.328;11.026;2023-04-09T01:50:45;94532.19;;;3.27;82.09
39223;BME280;24936;46.328;11.026;2023-04-09T01:53:10;94536.25;;;3.17;82.33
39223;BME280;24936;46.328;11.026;2023-04-09T01:55:36;94533.09;;;3.12;82.50
39223;BME280;24936;46.328;11.026;2023-04-09T01:58:01;94537.75;;;3.06;82.78
39223;BME280;24936;46.328;11.026;2023-04-09T02:00:32;94543.56;;;2.96;82.81
39223;BME280;24936;46.328;11.026;2023-04-09T02:03:07;94543.50;;;2.97;83.01
39223;BME280;24936;46.328;11.026;2023-04-09T02:05:37;94537.75;;;3.06;82.77
39223;BME280;24936;46.328;11.026;2023-04-09T02:08:06;94537.56;;;3.10;82.67
39223;BME280;24936;46.328;11.026;2023-04-09T02:10:37;94531.63;;;3.22;81.99
39223;BME280;24936;46.328;11.026;2023-04-09T02:13:04;94537.56;;;3.39;81.33
39223;BME280;24936;46.328;11.026;2023-04-09T02:15:30;94534.38;;;3.48;81.34
39223;BME280;24936;46.328;11.026;2023-04-09T02:17:56;94536.59;;;3.54;80.98
39223;BME280;24936;46.328;11.026;2023-04-09T02:20:21;94543.09;;;3.61;80.12
39223;BME280;24936;46.328;11.026;2023-04-09T02:22:47;94534.34;;;3.62;80.52
39223;BME280;24936;46.328;11.026;2023-04-09T02:25:14;94544.75;;;3.62;80.75
39223;BME280;24936;46.328;11.026;2023-04-09T02:27:39;94532.88;;;3.44;81.46
39223;BME280;24936;46.328;11.026;2023-04-09T02:30:05;94531.69;;;3.20;82.34
39223;BME280;24936;46.328;11.026;2023-04-09T02:32:31;94535.59;;;3.28;81.43
39223;BME280;24936;46.328;11.026;2023-04-09T02:34:56;94538.09;;;3.29;81.57
39223;BME280;24936;46.328;11.026;2023-04-09T02:37:21;94541.53;;;3.44;79.83
39223;BME280;24936;46.328;11.026;2023-04-09T02:39:47;94540.91;;;3.41;79.90
39223;BME280;24936;46.328;11.026;2023-04-09T02:42:12;94548.72;;;3.41;79.72
39223;BME280;24936;46.328;11.026;2023-04-09T02:44:37;94535.00;;;3.51;78.89
39223;BME280;24936;46.328;11.026;2023-04-09T02:47:03;94543.41;;;3.42;79.66
39223;BME280;24936;46.328;11.026;2023-04-09T02:52:50;94548.31;;;2.89;81.94
39223;BME280;24936;46.328;11.026;2023-04-09T02:55:19;94545.34;;;2.95;82.37
39223;BME280;24936;46.328;11.026;2023-04-09T02:57:44;94538.94;;;2.86;83.06
39223;BME280;24936;46.328;11.026;2023-04-09T03:00:10;94543.84;;;2.77;83.12
39223;BME280;24936;46.328;11.026;2023-04-09T03:02:36;94538.84;;;2.88;82.40
39223;BME280;24936;46.328;11.026;2023-04-09T03:05:02;94540.97;;;2.96;81.48
39223;BME280;24936;46.328;11.026;2023-04-09T03:07:27;94542.34;;;2.87;81.92
39223;BME280;24936;46.328;11.026;2023-04-09T03:09:53;94545.78;;;2.73;82.78
39223;BME280;24936;46.328;11.026;2023-04-09T03:12:18;94544.00;;;2.73;82.96
39223;BME280;24936;46.328;11.026;2023-04-09T03:14:43;94541.56;;;3.15;81.46
39223;BME280;24936;46.328;11.026;2023-04-09T03:17:09;94547.31;;;2.92;81.82
39223;BME280;24936;46.328;11.026;2023-04-09T03:19:34;94552.28;;;2.80;81.95
39223;BME280;24936;46.328;11.026;2023-04-09T03:21:59;94539.38;;;2.64;83.02
39223;BME280;24936;46.328;11.026;2023-04-09T03:24:25;94542.84;;;2.49;83.06
39223;BME280;24936;46.328;11.026;2023-04-09T03:26:50;94543.28;;;2.41;83.97
39223;BME280;24936;46.328;11.026;2023-04-09T03:29:15;94539.03;;;2.40;83.63
39223;BME280;24936;46.328;11.026;2023-04-09T03:31:41;94541.88;;;2.35;83.37
39223;BME280;24936;46.328;11.026;2023-04-09T03:34:06;94539.28;;;2.35;83.40
39223;BME280;24936;46.328;11.026;2023-04-09T03:36:32;94543.88;;;2.46;82.51
39223;BME280;24936;46.328;11.026;2023-04-09T03:38:57;94549.47;;;2.24;83.30
39223;BME280;24936;46.328;11.026;2023-04-09T03:41:22;94538.72;;;2.30;83.11
39223;BME280;24936;46.328;11.026;2023-04-09T03:43:48;94537.00;;;2.45;82.63
39223;BME280;24936;46.328;11.026;2023-04-09T03:46:14;94541.88;;;2.05;83.59
39223;BME280;24936;46.328;11.026;2023-04-09T03:48:40;94545.16;;;1.92;84.12
39223;BME280;24936;46.328;11.026;2023-04-09T03:51:09;94550.66;;;2.02;83.84
39223;BME280;24936;46.328;11.026;2023-04-09T03:53:35;94541.16;;;1.87;83.77
39223;BME280;24936;46.328;11.026;2023-04-09T03:56:00;94543.97;;;1.82;84.07
39223;BME280;24936;46.328;11.026;2023-04-09T03:58:27;94546.50;;;1.67;84.44
39223;BME280;24936;46.328;11.026;2023-04-09T04:00:53;94548.88;;;1.72;84.19
39223;BME280;24936;46.328;11.026;2023-04-09T04:03:18;94547.00;;;1.74;83.99
39223;BME280;24936;46.328;11.026;2023-04-09T04:05:44;94550.69;;;1.86;83.70
39223;BME280;24936;46.328;11.026;2023-04-09T04:08:10;94550.53;;;1.73;83.50
39223;BME280;24936;46.328;11.026;2023-04-09T04:10:35;94550.47;;;1.59;83.85
39223;BME280;24936;46.328;11.026;2023-04-09T04:13:01;94553.44;;;1.35;84.85
39223;BME280;24936;46.328;11.026;2023-04-09T04:15:27;94554.09;;;1.22;85.29
39223;BME280;24936;46.328;11.026;2023-04-09T04:17:52;94562.75;;;1.39;84.77
39223;BME280;24936;46.328;11.026;2023-04-09T04:20:18;94556.84;;;1.19;85.27
39223;BME280;24936;46.328;11.026;2023-04-09T04:22:43;94550.84;;;1.19;85.41
39223;BME280;24936;46.328;11.026;2023-04-09T04:25:09;94556.69;;;1.22;84.58
39223;BME280;24936;46.328;11.026;2023-04-09T04:27:34;94557.34;;;1.26;84.38
39223;BME280;24936;46.328;11.026;2023-04-09T04:29:59;94559.72;;;1.31;83.95
39223;BME280;24936;46.328;11.026;2023-04-09T04:32:26;94556.28;;;1.30;83.59
39223;BME280;24936;46.328;11.026;2023-04-09T04:34:52;94553.63;;;1.32;83.83
39223;BME280;24936;46.328;11.026;2023-04-09T04:37:17;94564.16;;;1.61;82.39
39223;BME280;24936;46.328;11.026;2023-04-09T04:39:42;94567.22;;;1.19;83.49
39223;BME280;24936;46.328;11.026;2023-04-09T04:42:08;94572.00;;;0.94;84.39
39223;BME280;24936;46.328;11.026;2023-04-09T04:44:33;94569.19;;;1.32;83.79
39223;BME280;24936;46.328;11.026;2023-04-09T04:46:59;94575.69;;;1.23;83.78
39223;BME280;24936;46.328;11.026;2023-04-09T04:49:24;94575.56;;;0.75;85.04
39223;BME280;24936;46.328;11.026;2023-04-09T04:51:49;94569.59;;;0.55;85.92
39223;BME280;24936;46.328;11.026;2023-04-09T04:54:15;94574.56;;;0.60;86.54
39223;BME280;24936;46.328;11.026;2023-04-09T04:56:40;94578.53;;;0.67;85.63
39223;BME280;24936;46.328;11.026;2023-04-09T04:59:05;94579.81;;;0.76;85.67
39223;BME280;24936;46.328;11.026;2023-04-09T05:01:31;94571.72;;;0.65;86.47
39223;BME280;24936;46.328;11.026;2023-04-09T05:03:56;94574.69;;;0.57;87.59
39223;BME280;24936;46.328;11.026;2023-04-09T05:06:21;94580.44;;;0.46;87.37
39223;BME280;24936;46.328;11.026;2023-04-09T05:08:47;94578.13;;;0.40;86.84
39223;BME280;24936;46.328;11.026;2023-04-09T05:11:12;94586.69;;;0.42;86.18
39223;BME280;24936;46.328;11.026;2023-04-09T05:13:39;94589.94;;;0.45;85.22
39223;BME280;24936;46.328;11.026;2023-04-09T05:16:05;94590.03;;;0.44;85.32
39223;BME280;24936;46.328;11.026;2023-04-09T05:18:30;94591.63;;;0.47;85.52
39223;BME280;24936;46.328;11.026;2023-04-09T05:20:56;94592.25;;;0.52;85.11
39223;BME280;24936;46.328;11.026;2023-04-09T05:23:21;94588.13;;;0.65;85.05
39223;BME280;24936;46.328;11.026;2023-04-09T05:25:50;94595.75;;;0.68;85.42
39223;BME280;24936;46.328;11.026;2023-04-09T05:28:15;94599.41;;;0.47;86.68
39223;BME280;24936;46.328;11.026;2023-04-09T05:30:45;94595.28;;;0.25;87.74
39223;BME280;24936;46.328;11.026;2023-04-09T05:33:10;94605.09;;;0.18;88.07
39223;BME280;24936;46.328;11.026;2023-04-09T05:35:39;94600.84;;;0.52;88.71
39223;BME280;24936;46.328;11.026;2023-04-09T05:38:04;94595.19;;;0.79;87.70
39223;BME280;24936;46.328;11.026;2023-04-09T05:40:30;94602.72;;;1.01;87.50
39223;BME280;24936;46.328;11.026;2023-04-09T05:42:55;94596.56;;;1.04;86.92
39223;BME280;24936;46.328;11.026;2023-04-09T05:45:20;94604.75;;;1.12;86.75
39223;BME280;24936;46.328;11.026;2023-04-09T05:47:46;94606.41;;;1.31;85.89
39223;BME280;24936;46.328;11.026;2023-04-09T05:50:11;94604.59;;;1.49;85.11
39223;BME280;24936;46.328;11.026;2023-04-09T05:52:37;94608.00;;;1.33;86.22
39223;BME280;24936;46.328;11.026;2023-04-09T05:55:02;94606.47;;;1.29;86.55
39223;BME280;24936;46.328;11.026;2023-04-09T05:57:29;94603.47;;;1.37;86.41
39223;BME280;24936;46.328;11.026;2023-04-09T05:59:55;94603.94;;;1.45;86.82
39223;BME280;24936;46.328;11.026;2023-04-09T06:02:20;94607.94;;;1.51;86.60
39223;BME280;24936;46.328;11.026;2023-04-09T06:04:46;94613.81;;;1.71;86.28
39223;BME280;24936;46.328;11.026;2023-04-09T06:07:11;94609.06;;;1.79;85.97
39223;BME280;24936;46.328;11.026;2023-04-09T06:09:36;94609.97;;;1.94;86.17
39223;BME280;24936;46.328;11.026;2023-04-09T06:12:02;94610.97;;;2.07;85.35
39223;BME280;24936;46.328;11.026;2023-04-09T06:14:28;94608.63;;;2.19;85.18
39223;BME280;24936;46.328;11.026;2023-04-09T06:16:57;94612.72;;;2.23;84.23
39223;BME280;24936;46.328;11.026;2023-04-09T06:19:23;94610.09;;;2.39;83.84
39223;BME280;24936;46.328;11.026;2023-04-09T06:21:48;94611.00;;;2.54;82.72
39223;BME280;24936;46.328;11.026;2023-04-09T06:24:14;94615.50;;;2.66;82.42
39223;BME280;24936;46.328;11.026;2023-04-09T06:26:39;94606.50;;;2.41;83.02
39223;BME280;24936;46.328;11.026;2023-04-09T06:29:04;94606.66;;;2.69;81.40
39223;BME280;24936;46.328;11.026;2023-04-09T06:31:30;94609.16;;;3.01;79.33
39223;BME280;24936;46.328;11.026;2023-04-09T06:33:55;94604.53;;;3.06;77.47
39223;BME280;24936;46.328;11.026;2023-04-09T06:36:20;94606.88;;;3.11;76.74
39223;BME280;24936;46.328;11.026;2023-04-09T06:38:46;94605.97;;;2.96;77.20
39223;BME280;24936;46.328;11.026;2023-04-09T06:41:11;94605.13;;;2.81;78.27
39223;BME280;24936;46.328;11.026;2023-04-09T06:43:37;94607.75;;;2.95;78.40
39223;BME280;24936;46.328;11.026;2023-04-09T06:46:02;94614.38;;;3.01;78.48
39223;BME280;24936;46.328;11.026;2023-04-09T06:48:27;94610.47;;;3.08;78.86
39223;BME280;24936;46.328;11.026;2023-04-09T06:50:53;94613.91;;;3.09;78.76
39223;BME280;24936;46.328;11.026;2023-04-09T06:53:19;94608.56;;;3.41;78.00
39223;BME280;24936;46.328;11.026;2023-04-09T06:55:45;94611.63;;;3.62;76.47
39223;BME280;24936;46.328;11.026;2023-04-09T06:58:10;94608.03;;;3.77;75.98
39223;BME280;24936;46.328;11.026;2023-04-09T07:00:35;94608.50;;;3.84;75.22
39223;BME280;24936;46.328;11.026;2023-04-09T07:03:01;94611.00;;;4.00;74.11
39223;BME280;24936;46.328;11.026;2023-04-09T07:05:26;94610.84;;;4.16;73.48
39223;BME280;24936;46.328;11.026;2023-04-09T07:07:51;94606.72;;;4.26;73.15
39223;BME280;24936;46.328;11.026;2023-04-09T07:10:17;94609.69;;;4.35;73.18
39223;BME280;24936;46.328;11.026;2023-04-09T07:12:42;94612.00;;;4.39;72.98
39223;BME280;24936;46.328;11.026;2023-04-09T07:15:08;94607.22;;;4.46;73.35
39223;BME280;24936;46.328;11.026;2023-04-09T07:17:34;94601.63;;;4.52;72.95
39223;BME280;24936;46.328;11.026;2023-04-09T07:20:00;94608.44;;;4.68;72.46
39223;BME280;24936;46.328;11.026;2023-04-09T07:22:26;94606.91;;;4.78;72.00
39223;BME280;24936;46.328;11.026;2023-04-09T07:24:52;94607.41;;;4.83;72.29
39223;BME280;24936;46.328;11.026;2023-04-09T07:27:22;94608.59;;;4.92;72.61
39223;BME280;24936;46.328;11.026;2023-04-09T07:29:48;94603.41;;;5.05;72.15
39223;BME280;24936;46.328;11.026;2023-04-09T07:32:14;94604.25;;;5.18;72.14
39223;BME280;24936;46.328;11.026;2023-04-09T07:34:40;94608.94;;;5.26;71.63
39223;BME280;24936;46.328;11.026;2023-04-09T07:37:05;94612.38;;;5.40;71.77
39223;BME280;24936;46.328;11.026;2023-04-09T07:39:31;94605.72;;;5.48;71.03
39223;BME280;24936;46.328;11.026;2023-04-09T07:41:56;94607.16;;;5.53;71.27
39223;BME280;24936;46.328;11.026;2023-04-09T07:44:22;94610.16;;;5.72;70.79
39223;BME280;24936;46.328;11.026;2023-04-09T07:46:48;94605.22;;;5.80;70.77
39223;BME280;24936;46.328;11.026;2023-04-09T07:49:13;94597.91;;;5.99;70.98
39223;BME280;24936;46.328;11.026;2023-04-09T07:51:40;94605.72;;;6.11;69.63
39223;BME280;24936;46.328;11.026;2023-04-09T07:54:05;94605.53;;;6.39;70.29
39223;BME280;24936;46.328;11.026;2023-04-09T07:56:31;94612.03;;;6.57;69.25
39223;BME280;24936;46.328;11.026;2023-04-09T07:58:56;94611.06;;;6.83;67.54
39223;BME280;24936;46.328;11.026;2023-04-09T08:01:21;94604.91;;;7.42;65.64
39223;BME280;24936;46.328;11.026;2023-04-09T08:03:49;94597.72;;;8.35;64.02
39223;BME280;24936;46.328;11.026;2023-04-09T08:06:15;94591.56;;;8.69;60.97
39223;BME280;24936;46.328;11.026;2023-04-09T08:08:41;94592.13;;;9.26;58.90
39223;BME280;24936;46.328;11.026;2023-04-09T08:11:06;94588.69;;;9.57;60.26
39223;BME280;24936;46.328;11.026;2023-04-09T08:13:32;94592.69;;;10.23;57.09
39223;BME280;24936;46.328;11.026;2023-04-09T08:15:59;94586.69;;;10.91;53.61
39223;BME280;24936;46.328;11.026;2023-04-09T08:18:26;94592.91;;;11.20;52.93
39223;BME280;24936;46.328;11.026;2023-04-09T08:20:51;94595.44;;;11.69;52.55
39223;BME280;24936;46.328;11.026;2023-04-09T08:23:16;94591.19;;;12.33;49.27
39223;BME280;24936;46.328;11.026;2023-04-09T08:25:42;94581.75;;;11.55;49.24
39223;BME280;24936;46.328;11.026;2023-04-09T08:28:07;94589.63;;;11.75;48.40
39223;BME280;24936;46.328;11.026;2023-04-09T08:30:33;94591.84;;;12.63;46.73
39223;BME280;24936;46.328;11.026;2023-04-09T08:32:59;94590.84;;;12.18;51.19
39223;BME280;24936;46.328;11.026;2023-04-09T08:35:25;94595.16;;;11.05;49.56
39223;BME280;24936;46.328;11.026;2023-04-09T08:37:54;94594.50;;;10.32;49.51
39223;BME280;24936;46.328;11.026;2023-04-09T08:40:19;94598.75;;;11.13;50.80
39223;BME280;24936;46.328;11.026;2023-04-09T08:42:45;94598.31;;;10.59;51.47
39223;BME280;24936;46.328;11.026;2023-04-09T08:45:12;94599.00;;;10.81;49.33
39223;BME280;24936;46.328;11.026;2023-04-09T08:47:40;94593.00;;;12.79;45.83
39223;BME280;24936;46.328;11.026;2023-04-09T08:50:06;94589.72;;;13.66;41.44
39223;BME280;24936;46.328;11.026;2023-04-09T08:52:33;94589.72;;;14.86;37.05
39223;BME280;24936;46.328;11.026;2023-04-09T08:54:58;94587.06;;;14.78;35.08
39223;BME280;24936;46.328;11.026;2023-04-09T08:57:24;94584.50;;;16.96;30.46
39223;BME280;24936;46.328;11.026;2023-04-09T08:59:49;94591.50;;;14.18;32.57
39223;BME280;24936;46.328;11.026;2023-04-09T09:02:15;94582.06;;;13.81;36.92
39223;BME280;24936;46.328;11.026;2023-04-09T09:04:48;94589.44;;;12.70;40.63
39223;BME280;24936;46.328;11.026;2023-04-09T09:07:14;94583.22;;;12.15;38.89
39223;BME280;24936;46.328;11.026;2023-04-09T09:09:53;94585.75;;;12.07;39.44
39223;BME280;24936;46.328;11.026;2023-04-09T09:12:40;94585.63;;;12.08;39.72
39223;BME280;24936;46.328;11.026;2023-04-09T09:15:25;94578.56;;;12.73;36.66
39223;BME280;24936;46.328;11.026;2023-04-09T09:17:56;94583.00;;;14.41;35.77
39223;BME280;24936;46.328;11.026;2023-04-09T09:20:22;94569.94;;;16.13;32.79
39223;BME280;24936;46.328;11.026;2023-04-09T09:22:49;94572.44;;;16.77;29.64
39223;BME280;24936;46.328;11.026;2023-04-09T09:25:15;94574.19;;;17.40;33.85
39223;BME280;24936;46.328;11.026;2023-04-09T09:27:41;94571.75;;;16.52;31.17
39223;BME280;24936;46.328;11.026;2023-04-09T09:30:07;94567.16;;;18.15;30.68
39223;BME280;24936;46.328;11.026;2023-04-09T09:32:34;94561.94;;;17.31;30.31
39223;BME280;24936;46.328;11.026;2023-04-09T09:35:03;94568.13;;;17.08;29.22
39223;BME280;24936;46.328;11.026;2023-04-09T09:37:29;94558.94;;;18.99;28.31
39223;BME280;24936;46.328;11.026;2023-04-09T09:39:55;94548.50;;;17.09;28.61
39223;BME280;24936;46.328;11.026;2023-04-09T09:42:21;94549.31;;;17.86;29.71
39223;BME280;24936;46.328;11.026;2023-04-09T09:44:46;94544.31;;;18.58;29.32
39223;BME280;24936;46.328;11.026;2023-04-09T09:47:13;94543.78;;;18.32;28.17
39223;BME280;24936;46.328;11.026;2023-04-09T09:49:39;94540.88;;;18.27;28.29
39223;BME280;24936;46.328;11.026;2023-04-09T09:52:08;94535.72;;;17.96;26.21
39223;BME280;24936;46.328;11.026;2023-04-09T09:54:39;94536.91;;;19.62;24.60
39223;BME280;24936;46.328;11.026;2023-04-09T09:57:09;94526.56;;;18.65;26.46
39223;BME280;24936;46.328;11.026;2023-04-09T09:59:40;94530.28;;;19.29;25.71
39223;BME280;24936;46.328;11.026;2023-04-09T10:02:12;94529.63;;;18.47;28.82
39223;BME280;24936;46.328;11.026;2023-04-09T10:04:41;94530.13;;;19.59;27.57
39223;BME280;24936;46.328;11.026;2023-04-09T10:07:07;94521.41;;;19.79;25.99
39223;BME280;24936;46.328;11.026;2023-04-09T10:09:34;94519.19;;;19.54;24.58
39223;BME280;24936;46.328;11.026;2023-04-09T10:12:03;94510.38;;;19.32;23.21
39223;BME280;24936;46.328;11.026;2023-04-09T10:14:31;94506.91;;;19.09;25.66
39223;BME280;24936;46.328;11.026;2023-04-09T10:16:57;94504.81;;;19.83;24.29
39223;BME280;24936;46.328;11.026;2023-04-09T10:19:23;94508.06;;;19.50;24.81
39223;BME280;24936;46.328;11.026;2023-04-09T10:22:03;94505.31;;;18.72;23.61
39223;BME280;24936;46.328;11.026;2023-04-09T10:24:32;94499.38;;;19.13;26.41
39223;BME280;24936;46.328;11.026;2023-04-09T10:27:12;94490.75;;;20.03;24.92
39223;BME280;24936;46.328;11.026;2023-04-09T10:29:43;94496.13;;;19.75;23.72
39223;BME280;24936;46.328;11.026;2023-04-09T10:32:10;94491.72;;;19.89;23.56
39223;BME280;24936;46.328;11.026;2023-04-09T10:34:42;94497.50;;;19.64;25.75
39223;BME280;24936;46.328;11.026;2023-04-09T10:37:29;94489.41;;;19.00;24.26
39223;BME280;24936;46.328;11.026;2023-04-09T10:39:55;94490.88;;;19.60;23.38
39223;BME280;24936;46.328;11.026;2023-04-09T10:42:34;94479.03;;;18.90;22.64
39223;BME280;24936;46.328;11.026;2023-04-09T10:45:13;94480.53;;;20.13;22.06
39223;BME280;24936;46.328;11.026;2023-04-09T10:47:41;94482.75;;;19.68;22.44
39223;BME280;24936;46.328;11.026;2023-04-09T10:50:20;94481.66;;;19.55;23.65
39223;BME280;24936;46.328;11.026;2023-04-09T10:52:51;94472.91;;;20.72;24.60
39223;BME280;24936;46.328;11.026;2023-04-09T10:55:37;94467.19;;;20.75;21.30
39223;BME280;24936;46.328;11.026;2023-04-09T10:58:10;94460.66;;;21.25;21.77
39223;BME280;24936;46.328;11.026;2023-04-09T11:00:38;94457.78;;;20.24;22.78
39223;BME280;24936;46.328;11.026;2023-04-09T11:05:47;94455.88;;;19.41;21.82
39223;BME280;24936;46.328;11.026;2023-04-09T11:08:15;94449.72;;;19.76;19.93
39223;BME280;24936;46.328;11.026;2023-04-09T11:10:42;94447.47;;;20.83;19.54
39223;BME280;24936;46.328;11.026;2023-04-09T11:13:16;94438.38;;;21.58;17.93
39223;BME280;24936;46.328;11.026;2023-04-09T11:15:43;94441.69;;;20.73;20.65
39223;BME280;24936;46.328;11.026;2023-04-09T11:18:13;94437.56;;;21.78;19.63
39223;BME280;24936;46.328;11.026;2023-04-09T11:20:39;94423.13;;;21.79;18.29
39223;BME280;24936;46.328;11.026;2023-04-09T11:23:05;94422.78;;;21.28;18.95
39223;BME280;24936;46.328;11.026;2023-04-09T11:25:31;94430.28;;;18.31;21.71
39223;BME280;24936;46.328;11.026;2023-04-09T11:27:58;94420.91;;;19.29;21.26
39223;BME280;24936;46.328;11.026;2023-04-09T11:30:23;94417.44;;;20.95;23.32
39223;BME280;24936;46.328;11.026;2023-04-09T11:32:49;94420.22;;;20.32;20.42
39223;BME280;24936;46.328;11.026;2023-04-09T11:35:16;94411.63;;;20.64;20.78
39223;BME280;24936;46.328;11.026;2023-04-09T11:37:43;94407.53;;;21.42;20.25
39223;BME280;24936;46.328;11.026;2023-04-09T11:40:19;94420.63;;;22.36;19.76
39223;BME280;24936;46.328;11.026;2023-04-09T11:42:48;94413.91;;;22.20;20.16
39223;BME280;24936;46.328;11.026;2023-04-09T11:45:14;94400.09;;;21.58;20.35
39223;BME280;24936;46.328;11.026;2023-04-09T11:47:42;94405.41;;;22.69;19.69
39223;BME280;24936;46.328;11.026;2023-04-09T11:50:09;94403.25;;;22.07;18.63
39223;BME280;24936;46.328;11.026;2023-04-09T11:52:35;94396.41;;;21.59;17.93
39223;BME280;24936;46.328;11.026;2023-04-09T11:55:01;94402.41;;;22.13;19.58
39223;BME280;24936;46.328;11.026;2023-04-09T11:57:58;94390.81;;;22.26;20.58
39223;BME280;24936;46.328;11.026;2023-04-09T12:00:27;94380.81;;;21.94;19.42
39223;BME280;24936;46.328;11.026;2023-04-09T12:03:03;94386.19;;;21.94;17.43
39223;BME280;24936;46.328;11.026;2023-04-09T12:05:30;94382.41;;;20.69;19.16
39223;BME280;24936;46.328;11.026;2023-04-09T12:07:58;94377.09;;;21.36;19.48
39223;BME280;24936;46.328;11.026;2023-04-09T12:10:27;94374.19;;;20.37;20.95
39223;BME280;24936;46.328;11.026;2023-04-09T12:12:53;94374.78;;;20.32;21.34
39223;BME280;24936;46.328;11.026;2023-04-09T12:15:23;94370.72;;;21.04;20.19
39223;BME280;24936;46.328;11.026;2023-04-09T12:17:50;94377.34;;;18.65;20.80
39223;BME280;24936;46.328;11.026;2023-04-09T12:20:48;94375.22;;;17.80;21.40
39223;BME280;24936;46.328;11.026;2023-04-09T12:23:15;94377.25;;;17.18;21.77
39223;BME280;24936;46.328;11.026;2023-04-09T12:25:42;94377.00;;;18.10;20.45
39223;BME280;24936;46.328;11.026;2023-04-09T12:28:10;94361.00;;;20.29;19.11
39223;BME280;24936;46.328;11.026;2023-04-09T12:30:37;94362.47;;;19.06;19.42
39223;BME280;24936;46.328;11.026;2023-04-09T12:33:03;94371.72;;;17.80;20.89
39223;BME280;24936;46.328;11.026;2023-04-09T12:35:28;94368.72;;;17.53;22.96
39223;BME280;24936;46.328;11.026;2023-04-09T12:37:54;94366.56;;;18.80;20.81
39223;BME280;24936;46.328;11.026;2023-04-09T12:40:20;94373.16;;;18.34;21.79
39223;BME280;24936;46.328;11.026;2023-04-09T12:42:46;94371.56;;;16.68;23.92
39223;BME280;24936;46.328;11.026;2023-04-09T12:45:13;94375.78;;;18.77;21.21
39223;BME280;24936;46.328;11.026;2023-04-09T12:47:38;94363.97;;;17.33;21.47
39223;BME280;24936;46.328;11.026;2023-04-09T12:50:04;94358.16;;;16.46;21.87
39223;BME280;24936;46.328;11.026;2023-04-09T12:52:30;94348.81;;;16.50;23.81
39223;BME280;24936;46.328;11.026;2023-04-09T12:54:55;94351.59;;;19.01;22.11
39223;BME280;24936;46.328;11.026;2023-04-09T12:57:21;94353.34;;;19.57;19.78
39223;BME280;24936;46.328;11.026;2023-04-09T12:59:46;94340.03;;;20.12;18.27
39223;BME280;24936;46.328;11.026;2023-04-09T13:02:12;94341.44;;;20.08;18.04
39223;BME280;24936;46.328;11.026;2023-04-09T13:04:37;94332.25;;;20.44;17.54